Check out our new PWSWeather beta!
PWSweather.com
Personal Weather Stations
Station Observations

VihtavuoriFI

Lat: 62.3670859, Lon: 25.9019003

Elevation: 324.8

Station Type: Davis Vantage PRO2 Aktiv

http://www.kapoweather.net/index.php

Latest ConditionsUpdated 9:30:00 AM GMT+02:02 Friday, Feb 21, 2020
Currently Today's Max Today's Min Today's Average
Temperature 32.6°F0.3°C 34.6°F1.4°C 28.0°F-2.2°C 32.0°F0.0°C
Dew Point 31.3°F-0.4°C 31.5°F-0.3°C 26.0°F-3.3°C 29.8°F-1.2°C
Winds 4.0 mph SSE6.4 kmh SSE 7.0 mph -11.3 kmh - - 4.3 mph 6.9 kmh
Wind Gusts 10.0 mph16.1 kmh 14.0 mph22.5 kmh - -
Humidity 95% 96% 88% 91%
Pressure 29.51 in999.3 mb 29.74 in1007.1 mb 29.51 in999.3 mb -
Hour Temp Dew Point Humidity Winds Wind Gusts Pressure Precip Precip Rate Daily Precip Total
09:30 AM 32.6°F0.3°C 31.3°F-0.4°C 95% 4.0 mph SSE6.4 kmh SSE 10.0 mph16.1 kmh 29.51 in999.3 mb 0.00 in0.0 mm 0.00 in0.0 mm 0.00 in0.0 mm
09:15 AM 32.5°F0.3°C 31.5°F-0.3°C 96% 4.0 mph SSE6.4 kmh SSE 12.0 mph19.3 kmh 29.52 in999.7 mb 0.00 in0.0 mm 0.00 in0.0 mm 0.00 in0.0 mm
09:00 AM 32.5°F0.3°C 31.2°F-0.4°C 95% 5.0 mph SSE8.0 kmh SSE 13.0 mph20.9 kmh 29.52 in999.7 mb 0.00 in0.0 mm 0.00 in0.0 mm 0.00 in0.0 mm
08:45 AM 32.5°F0.3°C 31.2°F-0.4°C 95% 4.0 mph SE6.4 kmh SE 10.0 mph16.1 kmh 29.52 in999.7 mb 0.00 in0.0 mm 0.00 in0.0 mm 0.00 in0.0 mm
08:30 AM 32.5°F0.3°C 31.2°F-0.4°C 95% 3.0 mph S4.8 kmh S 12.0 mph19.3 kmh 29.53 in1000.0 mb 0.00 in0.0 mm 0.00 in0.0 mm 0.00 in0.0 mm
08:15 AM 32.5°F0.3°C 31.2°F-0.4°C 95% 5.0 mph SSE8.0 kmh SSE 10.0 mph16.1 kmh 29.53 in1000.0 mb 0.00 in0.0 mm 0.00 in0.0 mm 0.00 in0.0 mm
08:00 AM 32.6°F0.3°C 31.1°F-0.5°C 94% 4.0 mph SSE6.4 kmh SSE 9.0 mph14.5 kmh 29.53 in1000.0 mb 0.00 in0.0 mm 0.00 in0.0 mm 0.00 in0.0 mm
07:45 AM 32.9°F0.5°C 31.4°F-0.3°C 94% 4.0 mph SSE6.4 kmh SSE 12.0 mph19.3 kmh 29.53 in1000.0 mb 0.00 in0.0 mm 0.00 in0.0 mm 0.00 in0.0 mm
07:30 AM 33.4°F0.8°C 31.3°F-0.4°C 92% 5.0 mph SSE8.0 kmh SSE 11.0 mph17.7 kmh 29.54 in1000.3 mb 0.00 in0.0 mm 0.00 in0.0 mm 0.00 in0.0 mm
07:15 AM 34.1°F1.2°C 31.5°F-0.3°C 90% 6.0 mph SSE9.7 kmh SSE 12.0 mph19.3 kmh 29.54 in1000.3 mb 0.00 in0.0 mm 0.00 in0.0 mm 0.00 in0.0 mm
07:00 AM 34.6°F1.4°C 31.4°F-0.3°C 88% 7.0 mph SSE11.3 kmh SSE 13.0 mph20.9 kmh 29.54 in1000.3 mb 0.00 in0.0 mm 0.00 in0.0 mm 0.00 in0.0 mm
06:45 AM 34.6°F1.4°C 31.4°F-0.3°C 88% 6.0 mph S9.7 kmh S 14.0 mph22.5 kmh 29.55 in1000.7 mb 0.00 in0.0 mm 0.00 in0.0 mm 0.00 in0.0 mm
06:30 AM 34.6°F1.4°C 31.4°F-0.3°C 88% 6.0 mph SSE9.7 kmh SSE 12.0 mph19.3 kmh 29.55 in1000.7 mb 0.00 in0.0 mm 0.00 in0.0 mm 0.00 in0.0 mm
06:15 AM 34.4°F1.3°C 31.2°F-0.4°C 88% 5.0 mph SSE8.0 kmh SSE 12.0 mph19.3 kmh 29.56 in1001.0 mb 0.00 in0.0 mm 0.00 in0.0 mm 0.00 in0.0 mm
06:00 AM 34.3°F1.3°C 31.1°F-0.5°C 88% 5.0 mph SSE8.0 kmh SSE 12.0 mph19.3 kmh 29.56 in1001.0 mb 0.00 in0.0 mm 0.00 in0.0 mm 0.00 in0.0 mm
05:45 AM 34.0°F1.1°C 30.8°F-0.7°C 88% 5.0 mph SSE8.0 kmh SSE 12.0 mph19.3 kmh 29.57 in1001.4 mb 0.00 in0.0 mm 0.00 in0.0 mm 0.00 in0.0 mm
05:30 AM 33.8°F1.0°C 30.6°F-0.8°C 88% 5.0 mph SSE8.0 kmh SSE 14.0 mph22.5 kmh 29.58 in1001.7 mb 0.00 in0.0 mm 0.00 in0.0 mm 0.00 in0.0 mm
05:15 AM 33.7°F0.9°C 30.5°F-0.8°C 88% 4.0 mph S6.4 kmh S 14.0 mph22.5 kmh 29.58 in1001.7 mb 0.00 in0.0 mm 0.00 in0.0 mm 0.00 in0.0 mm
05:00 AM 33.6°F0.9°C 30.4°F-0.9°C 88% 4.0 mph SSE6.4 kmh SSE 11.0 mph17.7 kmh 29.59 in1002.0 mb 0.00 in0.0 mm 0.00 in0.0 mm 0.00 in0.0 mm
04:45 AM 33.4°F0.8°C 30.5°F-0.8°C 89% 6.0 mph SSE9.7 kmh SSE 12.0 mph19.3 kmh 29.59 in1002.0 mb 0.00 in0.0 mm 0.00 in0.0 mm 0.00 in0.0 mm
04:30 AM 33.1°F0.6°C 30.2°F-1.0°C 89% 4.0 mph S6.4 kmh S 8.0 mph12.9 kmh 29.60 in1002.4 mb 0.00 in0.0 mm 0.00 in0.0 mm 0.00 in0.0 mm
04:15 AM 32.6°F0.3°C 30.3°F-0.9°C 91% 4.0 mph SSE6.4 kmh SSE 11.0 mph17.7 kmh 29.61 in1002.7 mb 0.00 in0.0 mm 0.00 in0.0 mm 0.00 in0.0 mm
04:00 AM 32.3°F0.2°C 30.0°F-1.1°C 91% 4.0 mph SSE6.4 kmh SSE 11.0 mph17.7 kmh 29.62 in1003.0 mb 0.00 in0.0 mm 0.00 in0.0 mm 0.00 in0.0 mm
03:45 AM 32.2°F0.1°C 29.9°F-1.2°C 91% 4.0 mph SSE6.4 kmh SSE 13.0 mph20.9 kmh 29.62 in1003.0 mb 0.00 in0.0 mm 0.00 in0.0 mm 0.00 in0.0 mm
03:30 AM 32.2°F0.1°C 29.9°F-1.2°C 91% 5.0 mph SSE8.0 kmh SSE 13.0 mph20.9 kmh 29.63 in1003.4 mb 0.00 in0.0 mm 0.00 in0.0 mm 0.00 in0.0 mm
03:15 AM 31.9°F-0.1°C 29.8°F-1.2°C 92% 5.0 mph SSE8.0 kmh SSE 12.0 mph19.3 kmh 29.64 in1003.7 mb 0.00 in0.0 mm 0.00 in0.0 mm 0.00 in0.0 mm
03:00 AM 32.0°F0.0°C 29.7°F-1.3°C 91% 6.0 mph SSE9.7 kmh SSE 14.0 mph22.5 kmh 29.65 in1004.1 mb 0.00 in0.0 mm 0.00 in0.0 mm 0.00 in0.0 mm
02:45 AM 31.6°F-0.2°C 29.3°F-1.5°C 91% 5.0 mph S8.0 kmh S 10.0 mph16.1 kmh 29.66 in1004.4 mb 0.00 in0.0 mm 0.00 in0.0 mm 0.00 in0.0 mm
02:30 AM 31.1°F-0.5°C 29.0°F-1.7°C 92% 3.0 mph SSE4.8 kmh SSE 9.0 mph14.5 kmh 29.66 in1004.4 mb 0.00 in0.0 mm 0.00 in0.0 mm 0.00 in0.0 mm
02:15 AM 30.7°F-0.7°C 28.7°F-1.8°C 92% 4.0 mph SSE6.4 kmh SSE 9.0 mph14.5 kmh 29.66 in1004.4 mb 0.00 in0.0 mm 0.00 in0.0 mm 0.00 in0.0 mm
02:00 AM 30.3°F-0.9°C 28.3°F-2.1°C 92% 4.0 mph SSE6.4 kmh SSE 10.0 mph16.1 kmh 29.67 in1004.7 mb 0.00 in0.0 mm 0.00 in0.0 mm 0.00 in0.0 mm
01:45 AM 30.0°F-1.1°C 28.0°F-2.2°C 92% 4.0 mph SSE6.4 kmh SSE 12.0 mph19.3 kmh 29.68 in1005.1 mb 0.00 in0.0 mm 0.00 in0.0 mm 0.00 in0.0 mm
01:30 AM 29.5°F-1.4°C 27.5°F-2.5°C 92% 3.0 mph SSE4.8 kmh SSE 9.0 mph14.5 kmh 29.69 in1005.4 mb 0.00 in0.0 mm 0.00 in0.0 mm 0.00 in0.0 mm
01:15 AM 29.1°F-1.6°C 27.1°F-2.7°C 92% 3.0 mph SSE4.8 kmh SSE 10.0 mph16.1 kmh 29.70 in1005.8 mb 0.00 in0.0 mm 0.00 in0.0 mm 0.00 in0.0 mm
01:00 AM 28.8°F-1.8°C 27.0°F-2.8°C 93% 3.0 mph SE4.8 kmh SE 9.0 mph14.5 kmh 29.71 in1006.1 mb 0.00 in0.0 mm 0.00 in0.0 mm 0.00 in0.0 mm
12:45 AM 28.6°F-1.9°C 26.6°F-3.0°C 92% 3.0 mph SE4.8 kmh SE 9.0 mph14.5 kmh 29.72 in1006.4 mb 0.00 in0.0 mm 0.00 in0.0 mm 0.00 in0.0 mm
12:30 AM 28.4°F-2.0°C 26.4°F-3.1°C 92% 2.0 mph SE3.2 kmh SE 6.0 mph9.7 kmh 29.73 in1006.8 mb 0.00 in0.0 mm 0.00 in0.0 mm 0.00 in0.0 mm
12:15 AM 28.2°F-2.1°C 26.2°F-3.2°C 92% 3.0 mph SE4.8 kmh SE 10.0 mph16.1 kmh 29.73 in1006.8 mb 0.00 in0.0 mm 0.00 in0.0 mm 0.00 in0.0 mm
12:00 AM 28.0°F-2.2°C 26.0°F-3.3°C 92% 3.0 mph SE4.8 kmh SE 9.0 mph14.5 kmh 29.74 in1007.1 mb 0.00 in0.0 mm 0.00 in0.0 mm 0.00 in0.0 mm